Time;durP1;ratioP1;P1;durP2;ratioP2;P2;SDS_P1;SDS_P2;PMS_P1;PMS_P2;Temp;Humidity;BMP_temperature;BMP_pressure;BME280_temperature;BME280_humidity;BME280_pressure;Samples;Min_cycle;Max_cycle;Signal;HPM_P1;HPM_P2
2022/12/22 03:27:22;;;;;;;1.65;1.55;;;;;;;5.16;60.15;100644.25;18421122;31;20085;-58
2022/12/22 03:37:27;;;;;;;1.65;1.55;;;;;;;5.15;60.63;100640.78;18420715;32;20144;-57
2022/12/22 03:47:32;;;;;;;0.95;0.95;;;;;;;5.11;61.53;100624.28;18418644;32;20109;-57
2022/12/22 03:57:37;;;;;;;2.45;2.35;;;;;;;5.03;62.19;100619.78;18420626;32;20153;-56
2022/12/22 04:07:41;;;;;;;1.00;1.00;;;;;;;4.88;63.24;100621.16;18418807;32;20108;-57
2022/12/22 04:17:46;;;;;;;1.02;1.02;;;;;;;4.84;63.92;100624.50;18419198;32;20104;-57
2022/12/22 04:27:50;;;;;;;0.80;0.80;;;;;;;4.61;65.28;100616.16;18417530;32;20137;-57
2022/12/22 04:37:54;;;;;;;1.77;1.67;;;;;;;4.85;64.56;100621.97;18417260;32;20457;-57
2022/12/22 04:47:57;;;;;;;1.00;0.98;;;;;;;4.92;64.58;100622.09;18416575;32;20117;-57
2022/12/22 04:58:02;;;;;;;1.98;1.25;;;;;;;4.85;65.16;100609.03;18423720;32;20108;-57
2022/12/22 05:08:06;;;;;;;0.82;0.82;;;;;;;4.96;65.39;100618.78;18426159;32;20097;-57
2022/12/22 05:18:12;;;;;;;0.88;0.88;;;;;;;4.95;65.54;100624.78;18425732;32;20372;-57
2022/12/22 05:28:15;;;;;;;2.83;2.42;;;;;;;4.93;65.86;100618.69;18425539;31;20081;-57
2022/12/22 05:38:20;;;;;;;0.90;0.90;;;;;;;4.96;65.96;100631.72;18425056;32;20101;-57
2022/12/22 05:48:23;;;;;;;2.17;1.95;;;;;;;5.06;65.50;100620.75;18408247;32;20109;-57
2022/12/22 05:58:37;;;;;;;1.37;1.33;;;;;;;4.96;66.14;100618.78;18389789;32;20439;-58
2022/12/22 06:08:41;;;;;;;1.80;1.70;;;;;;;4.94;66.37;100607.50;18369315;32;20396;-57
2022/12/22 06:18:45;;;;;;;1.48;1.48;;;;;;;4.81;66.32;100609.78;18359647;32;20093;-57
2022/12/22 06:28:48;;;;;;;3.40;2.65;;;;;;;4.93;65.77;100616.09;18361110;32;20106;-57
2022/12/22 06:38:53;;;;;;;0.80;0.80;;;;;;;4.92;66.01;100641.09;18358511;32;20101;-57
2022/12/22 06:48:56;;;;;;;1.12;1.12;;;;;;;5.05;66.06;100633.63;18359156;32;20104;-57
2022/12/22 06:59:01;;;;;;;1.50;1.45;;;;;;;5.07;66.24;100645.78;18358029;32;20101;-57
2022/12/22 07:09:04;;;;;;;0.73;0.73;;;;;;;5.07;66.22;100655.25;18357667;32;20441;-57
2022/12/22 07:19:09;;;;;;;1.50;1.40;;;;;;;5.11;66.23;100657.09;18356825;32;20437;-57
2022/12/22 07:29:12;;;;;;;3.85;3.58;;;;;;;5.18;66.14;100646.03;18356949;32;20390;-57
2022/12/22 07:39:16;;;;;;;1.08;1.05;;;;;;;5.29;65.94;100648.88;18355879;32;20121;-57
2022/12/22 07:59:41;;;;;;;3.15;2.92;;;;;;;5.18;65.98;100645.16;18355440;32;20414;-57
2022/12/22 08:09:44;;;;;;;1.73;1.65;;;;;;;5.52;65.22;100640.78;18359183;32;20696;-57
2022/12/22 08:19:49;;;;;;;1.17;1.12;;;;;;;5.74;64.88;100642.12;18353595;32;20101;-57
2022/12/22 08:29:55;;;;;;;0.60;0.60;;;;;;;5.81;64.43;100617.22;18356686;32;20097;-57
2022/12/22 08:40:07;;;;;;;1.00;1.00;;;;;;;6.46;62.63;100615.03;18386803;32;20117;-58
2022/12/22 08:50:12;;;;;;;1.08;1.08;;;;;;;6.77;61.16;100624.22;18391282;32;20443;-58
2022/12/22 09:00:18;;;;;;;1.65;1.55;;;;;;;6.65;60.93;100630.06;18413706;32;20100;-58
2022/12/22 09:10:21;;;;;;;8.38;6.28;;;;;;;6.53;60.74;100627.25;18426911;32;20101;-58
2022/12/22 09:20:25;;;;;;;1.15;1.08;;;;;;;6.60;60.59;100625.66;18426602;32;20085;-57
2022/12/22 09:30:28;;;;;;;2.12;2.03;;;;;;;6.62;60.33;100614.47;18425304;32;20105;-57
2022/12/22 09:40:33;;;;;;;1.55;1.55;;;;;;;6.56;60.56;100595.31;18423538;32;20093;-57
2022/12/22 09:50:37;;;;;;;1.08;1.08;;;;;;;6.61;61.46;100597.16;18371312;32;20137;-58
2022/12/22 10:00:42;;;;;;;1.27;0.88;;;;;;;6.84;60.00;100583.69;18361295;31;20097;-57
2022/12/22 10:10:46;;;;;;;1.17;1.08;;;;;;;6.85;60.66;100566.41;18361024;32;20100;-57
2022/12/22 10:21:07;;;;;;;3.03;2.92;;;;;;;6.80;60.18;100569.78;18359521;31;20125;-57
2022/12/22 10:31:16;;;;;;;3.55;3.35;;;;;;;7.04;58.92;100544.16;18359133;32;20444;-57
2022/12/22 10:41:21;;;;;;;2.15;1.48;;;;;;;7.06;60.00;100545.94;18358778;32;20093;-57
2022/12/22 10:51:25;;;;;;;1.12;1.12;;;;;;;7.21;59.34;100523.66;18414783;32;20119;-58
2022/12/22 11:01:32;;;;;;;1.73;1.62;;;;;;;7.36;58.19;100518.66;18421450;32;20179;-58
2022/12/22 11:11:38;;;;;;;3.85;3.47;;;;;;;7.65;57.44;100517.28;18421323;32;20219;-57
2022/12/22 11:21:48;;;;;;;1.25;1.25;;;;;;;7.81;56.10;100497.53;18420878;32;20656;-57
2022/12/22 11:32:05;;;;;;;1.85;1.75;;;;;;;7.58;56.55;100495.53;18417749;32;20103;-58
2022/12/22 11:42:22;;;;;;;2.15;2.03;;;;;;;6.76;60.29;100490.16;18417325;31;80964;-58
2022/12/22 11:52:38;;;;;;;3.58;1.73;;;;;;;6.98;58.86;100487.84;18420558;31;20099;-58
2022/12/22 12:03:18;;;;;;;2.20;1.87;;;;;;;7.95;56.46;100504.59;18418378;32;20104;-58
2022/12/22 12:13:29;;;;;;;2.62;2.00;;;;;;;7.96;55.86;100498.53;18412056;32;20098;-58
2022/12/22 12:23:55;;;;;;;1.05;1.05;;;;;;;7.84;54.72;100468.97;18355776;31;20094;-58
2022/12/22 12:34:00;;;;;;;8.77;2.85;;;;;;;8.01;55.22;100505.50;18354021;32;20112;-58
2022/12/22 12:44:06;;;;;;;0.90;0.90;;;;;;;8.04;55.81;100530.69;18352766;32;20174;-58
2022/12/22 12:54:33;;;;;;;2.35;2.25;;;;;;;8.13;54.77;100512.56;18352411;32;20456;-58
2022/12/22 13:05:25;;;;;;;1.98;1.87;;;;;;;8.02;55.77;100501.22;18351512;32;20085;-58
2022/12/22 13:15:32;;;;;;;1.35;1.10;;;;;;;7.84;57.07;100507.94;18355235;32;20097;-58
2022/12/22 13:25:42;;;;;;;5.30;2.70;;;;;;;7.79;57.94;100434.28;18361328;32;20081;-58
2022/12/22 13:35:47;;;;;;;2.62;2.45;;;;;;;7.71;58.88;100449.78;18361294;32;20315;-58
2022/12/22 13:46:01;;;;;;;1.50;1.42;;;;;;;7.57;59.35;100434.03;18370063;31;20112;-59
2022/12/22 13:56:07;;;;;;;1.35;1.35;;;;;;;7.58;58.63;100415.00;18379840;32;20089;-57
2022/12/22 14:06:20;;;;;;;1.33;1.23;;;;;;;7.63;58.47;100415.03;18360046;32;20624;-57
2022/12/22 14:16:24;;;;;;;2.42;2.30;;;;;;;7.49;58.77;100414.91;18359743;32;20456;-57
2022/12/22 14:26:29;;;;;;;12.25;1.80;;;;;;;7.45;58.22;100415.72;18358489;32;20101;-57
2022/12/22 14:36:40;;;;;;;0.80;0.80;;;;;;;7.46;58.68;100433.94;18358948;32;20357;-58
2022/12/22 14:46:44;;;;;;;0.87;0.87;;;;;;;7.36;59.04;100419.97;18358305;31;20101;-58
2022/12/22 14:56:52;;;;;;;13.62;4.55;;;;;;;7.26;59.20;100425.06;18357943;32;20181;-58
2022/12/22 15:07:06;;;;;;;1.10;1.10;;;;;;;7.38;58.67;100420.00;18357793;32;20086;-58
2022/12/22 15:17:20;;;;;;;2.33;1.98;;;;;;;7.27;59.40;100412.06;18357288;32;20346;-58
2022/12/22 15:27:23;;;;;;;2.90;1.95;;;;;;;7.18;59.61;100396.37;18356649;32;20342;-58
2022/12/22 15:37:29;;;;;;;1.27;1.25;;;;;;;7.26;59.64;100394.75;18356650;32;20089;-57
2022/12/22 15:47:36;;;;;;;0.82;0.82;;;;;;;7.18;60.27;100381.69;18353480;32;20115;-58
2022/12/22 15:57:46;;;;;;;1.90;1.80;;;;;;;7.03;60.98;100384.97;18354205;32;20104;-58
2022/12/22 16:07:53;;;;;;;0.60;0.60;;;;;;;7.18;60.99;100388.59;18366625;32;20099;-58
2022/12/22 16:17:58;;;;;;;1.95;1.85;;;;;;;7.02;61.94;100388.44;18418296;32;20103;-58
2022/12/22 16:28:02;;;;;;;1.58;1.48;;;;;;;7.08;62.01;100401.47;18418069;32;20101;-58
2022/12/22 16:38:07;;;;;;;23.60;21.73;;;;;;;6.98;62.60;100396.16;18417656;32;20390;-58
2022/12/22 16:48:21;;;;;;;3.87;3.50;;;;;;;6.95;62.65;100391.78;18417013;31;20119;-58
2022/12/22 16:58:26;;;;;;;2.80;2.05;;;;;;;7.03;62.89;100391.88;18426359;32;20092;-58
2022/12/22 17:08:31;;;;;;;2.22;2.12;;;;;;;6.83;64.00;100414.97;18426233;32;20097;-58
2022/12/22 17:18:36;;;;;;;4.32;2.12;;;;;;;7.01;63.55;100412.63;18425936;32;20089;-57
2022/12/22 17:28:40;;;;;;;4.87;0.90;;;;;;;6.78;64.67;100397.63;18425485;32;20119;-57
2022/12/22 17:38:44;;;;;;;1.87;1.77;;;;;;;6.94;64.06;100406.47;18424987;32;20521;-57
2022/12/22 17:48:48;;;;;;;1.20;1.20;;;;;;;6.94;64.56;100410.81;18477422;31;20112;-57
2022/12/22 17:58:53;;;;;;;2.78;1.45;;;;;;;6.86;65.03;100405.50;18424526;32;20137;-57
2022/12/22 18:08:57;;;;;;;35.47;4.35;;;;;;;6.90;65.17;100399.53;18423009;32;20121;-57
2022/12/22 18:19:01;;;;;;;2.95;2.75;;;;;;;6.77;65.83;100395.00;18423081;32;20105;-57
2022/12/22 18:29:05;;;;;;;0.90;0.90;;;;;;;6.98;65.43;100389.22;18421717;32;20112;-57
2022/12/22 18:39:15;;;;;;;9.20;4.87;;;;;;;6.90;65.90;100386.53;18422643;32;20141;-57
2022/12/22 18:49:19;;;;;;;;;;;;;;;6.86;66.72;100397.72;18422334;32;20111;-56
2022/12/22 18:59:26;;;;;;;1.87;1.77;;;;;;;6.79;67.31;100389.00;18422596;32;20024;-57
2022/12/22 19:09:30;;;;;;;2.42;2.28;;;;;;;6.89;67.32;100374.44;18421763;31;20089;-57
2022/12/22 19:19:34;;;;;;;1.85;1.75;;;;;;;6.95;67.35;100358.06;18420990;32;20093;-57
2022/12/22 19:29:37;;;;;;;1.00;1.00;;;;;;;6.93;67.21;100349.37;18420867;32;20170;-57
2022/12/22 19:39:42;;;;;;;0.88;0.88;;;;;;;6.94;67.24;100313.06;18420771;32;20100;-57
2022/12/22 19:49:47;;;;;;;1.95;1.85;;;;;;;6.94;67.20;100304.41;18419688;32;20119;-57
2022/12/22 19:59:52;;;;;;;1.92;1.67;;;;;;;6.99;67.13;100299.28;18419749;32;20115;-57
2022/12/22 20:09:55;;;;;;;3.60;1.85;;;;;;;6.89;67.49;100301.78;18419145;32;20115;-57
2022/12/22 20:19:59;;;;;;;0.80;0.80;;;;;;;6.89;68.27;100296.56;18418537;32;20139;-57
2022/12/22 20:30:03;;;;;;;1.65;1.52;;;;;;;6.96;68.25;100302.69;18425131;32;20101;-57
2022/12/22 20:40:20;;;;;;;1.80;1.65;;;;;;;7.11;67.73;100296.78;18427549;32;20132;-58
2022/12/22 20:50:26;;;;;;;2.33;2.22;;;;;;;6.93;68.30;100287.97;18427937;32;20365;-58
2022/12/22 21:00:30;;;;;;;2.75;2.55;;;;;;;7.01;68.30;100285.44;18426795;31;20100;-58
2022/12/22 21:10:34;;;;;;;2.33;2.12;;;;;;;7.06;68.34;100275.97;18426493;32;20501;-58
2022/12/22 21:20:38;;;;;;;7.40;2.72;;;;;;;7.07;68.39;100280.31;18426911;32;20137;-58
2022/12/22 21:30:41;;;;;;;1.45;1.37;;;;;;;7.11;68.43;100286.41;18425509;32;20136;-58
2022/12/22 21:40:46;;;;;;;0.98;0.98;;;;;;;7.04;68.96;100285.50;18424770;32;20085;-58
2022/12/22 21:50:52;;;;;;;4.03;1.95;;;;;;;7.19;68.69;100286.47;18425348;32;20124;-58
2022/12/22 22:00:56;;;;;;;4.82;2.55;;;;;;;7.33;68.18;100274.50;18423873;32;20085;-58
2022/12/22 22:10:59;;;;;;;1.65;1.60;;;;;;;7.19;68.93;100265.72;18424050;32;20681;-58
2022/12/22 22:21:07;;;;;;;4.20;1.85;;;;;;;7.48;68.21;100262.50;18476887;31;20673;-58
2022/12/22 22:31:11;;;;;;;0.88;0.88;;;;;;;7.49;68.50;100267.72;18423291;32;20100;-58
2022/12/22 22:41:15;;;;;;;0.85;0.85;;;;;;;7.47;68.47;100268.56;18422878;32;20433;-58
2022/12/22 22:51:19;;;;;;;2.80;1.70;;;;;;;7.48;68.67;100252.12;18421964;32;20093;-58
2022/12/22 23:01:23;;;;;;;2.75;1.87;;;;;;;7.59;68.21;100247.91;18422402;32;20093;-58
2022/12/22 23:11:26;;;;;;;1.10;1.10;;;;;;;7.53;68.30;100242.66;18422934;32;20158;-58
2022/12/22 23:21:31;;;;;;;0.95;0.95;;;;;;;7.53;68.42;100241.75;18421322;32;20107;-58
2022/12/22 23:31:34;;;;;;;1.50;1.50;;;;;;;7.49;68.74;100231.34;18420776;32;20115;-58
2022/12/22 23:41:39;;;;;;;1.05;1.02;;;;;;;7.57;68.21;100226.22;18421435;32;20111;-58
2022/12/22 23:51:42;;;;;;;5.87;5.32;;;;;;;7.52;68.05;100219.25;18419706;32;20107;-58
